Aérodrome :
LOGIN :

S'inscrire | Disclaimer

   EN    FR    IT 

 










Légende :    VFR   VFR Marginal   IFR   IFR Intensif   IFR Très Intensif
Visi : 
Plafond : 
>= 8 km
>= 3000ft
5 à 8 km
1000 à 3000 ft
1500m à 5 km
500 à 1000 ft
800 à 1500m
200 à 500 ft
< 800m
< 200 ft
Symboles :   Orages  Brouillard  Fortes neiges  Fortes précipitations  Vent > 20 kt
SIGMETs :   Divers  Orages  Givrage  Turbulence  Onde Orograph.  Cendres Volcan.






- Altitude de l'aérodrome : 160 ft
- Code IATA : LRT


LFRH - Lorient Lann Bihoue

DERNIER METAR :
  • 260200Z AUTO 28006KT CAVOK 11/06 Q1017 NOSIG

METARs EXPIRÉS :
  • 260130Z AUTO 28007KT CAVOK 11/06 Q1018 NOSIG
  • 260100Z AUTO 29009KT CAVOK 11/06 Q1018 NOSIG
  • 260030Z AUTO 28006KT CAVOK 10/06 Q1018 NOSIG
  • 260000Z AUTO 28008KT CAVOK 10/06 Q1018 NOSIG
  • 252330Z AUTO 28006KT CAVOK 09/06 Q1018 NOSIG

TAF TAF LFRH
Valide du 26 à 00h jusqu'au 27 à 00h UTC


252300Z 2600/2624 28006KT CAVOK
BECMG 2613/2615 02010KT
BECMG 2618/2620 31010KT



MET'MAP, la Météo Aéronautique d'un coup d'oeil ! - Copyright ORBIFLY Décembre 2007 - Disclaimer

ORBIFLY MET'MAP TEAM :

Programmation & Développement : Alexandra Zaïnal
Sur une idée originale de : Baudouin d'Aumeries
Assistance à la programmation : Marc-Olivier Méhu
Soutien technique & logistique : Manuel Goepfert

Contact : metmap@orbifly.com




SOURCES & CREDITS :

   NOAA